Time;durP1;ratioP1;P1;durP2;ratioP2;P2;SDS_P1;SDS_P2;PMS_P1;PMS_P2;Temp;Humidity;BMP_temperature;BMP_pressure;BME280_temperature;BME280_humidity;BME280_pressure;Samples;Min_cycle;Max_cycle;Signal;HPM_P1;HPM_P2
2022/11/28 00:01:46;;;;;;;2.08;1.60;;;;;;;7.05;100.00;101026.09;5097113;27;96537;-31
2022/11/28 00:04:12;;;;;;;4.18;2.35;;;;;;;7.08;100.00;101022.41;5077911;27;97927;-31
2022/11/28 00:06:40;;;;;;;5.63;2.50;;;;;;;7.11;100.00;101020.47;5077742;27;100781;-31
2022/11/28 00:09:06;;;;;;;4.78;2.88;;;;;;;7.16;100.00;101021.13;5096442;27;99521;-31
2022/11/28 00:11:32;;;;;;;3.13;2.25;;;;;;;7.15;100.00;101010.41;5078273;27;96698;-31
2022/11/28 00:13:57;;;;;;;3.38;2.10;;;;;;;7.16;100.00;101004.09;5096829;27;96871;-31
2022/11/28 00:16:23;;;;;;;3.25;2.10;;;;;;;7.20;100.00;101011.97;5095483;27;97473;-32
2022/11/28 00:18:50;;;;;;;3.65;2.40;;;;;;;7.20;100.00;100997.63;5095933;27;99019;-31
2022/11/28 00:21:15;;;;;;;2.58;1.85;;;;;;;7.22;100.00;101002.00;5077020;27;96820;-31
2022/11/28 00:23:43;;;;;;;2.85;1.90;;;;;;;7.28;100.00;101021.53;5077925;27;96877;-31
2022/11/28 00:26:15;;;;;;;2.92;2.00;;;;;;;7.29;100.00;101015.19;5077617;27;101066;-31
2022/11/28 00:28:40;;;;;;;3.95;2.22;;;;;;;7.26;100.00;101007.25;5077727;27;100755;-31
2022/11/28 00:31:10;;;;;;;3.17;1.58;;;;;;;7.27;100.00;100999.09;5096071;27;103279;-32
2022/11/28 00:33:35;;;;;;;4.85;2.63;;;;;;;7.32;100.00;101007.84;5077940;27;96711;-31
2022/11/28 00:36:03;;;;;;;4.53;2.65;;;;;;;7.35;100.00;101006.84;5095811;27;112616;-31
2022/11/28 00:38:28;;;;;;;4.07;1.70;;;;;;;7.33;100.00;101000.63;5077633;27;102531;-31
2022/11/28 00:40:59;;;;;;;3.05;1.52;;;;;;;7.32;100.00;100997.06;5096454;27;96529;-31
2022/11/28 00:43:24;;;;;;;3.78;2.25;;;;;;;7.35;100.00;100996.91;5077622;27;96972;-31
2022/11/28 00:45:50;;;;;;;5.72;2.05;;;;;;;7.35;100.00;100993.34;5095119;27;97390;-32
2022/11/28 00:48:15;;;;;;;4.03;2.33;;;;;;;7.37;100.00;100991.47;5096034;27;97302;-31
2022/11/28 00:50:40;;;;;;;1.80;1.50;;;;;;;7.41;100.00;101002.03;5095813;27;103360;-31
2022/11/28 00:53:05;;;;;;;7.15;2.35;;;;;;;7.41;100.00;101001.16;5096148;27;96966;-31
2022/11/28 00:55:31;;;;;;;5.47;2.30;;;;;;;7.40;100.00;100991.31;5095958;27;97925;-31
2022/11/28 00:57:56;;;;;;;3.10;2.03;;;;;;;7.43;100.00;100988.47;5095730;27;99349;-31
2022/11/28 01:00:21;;;;;;;4.20;2.33;;;;;;;7.45;100.00;100989.28;5096069;27;96688;-31
2022/11/28 01:02:47;;;;;;;3.50;1.63;;;;;;;7.44;100.00;100982.16;5096498;27;96846;-31
2022/11/28 01:05:12;;;;;;;3.03;1.58;;;;;;;7.48;100.00;100981.03;5095769;27;97361;-31
2022/11/28 01:07:41;;;;;;;1.98;1.30;;;;;;;7.48;100.00;100975.66;5095428;27;99382;-31
2022/11/28 01:10:07;;;;;;;1.38;1.05;;;;;;;7.52;100.00;100982.66;5095449;27;96659;-31
2022/11/28 01:12:32;;;;;;;2.42;1.80;;;;;;;7.51;100.00;100978.22;5077108;27;97510;-32
2022/11/28 01:14:58;;;;;;;3.55;1.90;;;;;;;7.53;100.00;100984.44;5095435;27;97405;-31
2022/11/28 01:17:23;;;;;;;3.60;1.83;;;;;;;7.55;100.00;100978.94;5076968;27;101187;-31
2022/11/28 01:19:49;;;;;;;1.60;1.33;;;;;;;7.58;100.00;100985.09;5095108;27;96867;-32
2022/11/28 01:22:14;;;;;;;3.13;1.45;;;;;;;7.58;100.00;100966.22;5096057;27;96541;-31
2022/11/28 01:24:39;;;;;;;2.85;1.67;;;;;;;7.59;100.00;100965.25;5095537;27;98883;-31
2022/11/28 01:27:05;;;;;;;1.45;1.00;;;;;;;7.62;100.00;100959.72;5097429;27;108192;-31
2022/11/28 01:29:30;;;;;;;2.08;1.38;;;;;;;7.65;100.00;100961.38;5099071;27;96816;-32
2022/11/28 01:31:56;;;;;;;1.40;0.93;;;;;;;7.68;100.00;100960.38;5099111;27;96889;-31
2022/11/28 01:34:21;;;;;;;2.22;1.55;;;;;;;7.70;100.00;100966.56;5098659;27;97958;-32
2022/11/28 01:36:47;;;;;;;1.33;1.02;;;;;;;7.72;100.00;100964.66;5099181;27;97496;-31
2022/11/28 01:39:14;;;;;;;1.05;0.95;;;;;;;7.72;100.00;100968.22;5098910;27;103935;-31
2022/11/28 01:41:40;;;;;;;2.75;1.23;;;;;;;7.74;100.00;100976.25;5080602;27;96793;-31
2022/11/28 01:44:28;;;;;;;1.85;1.08;;;;;;;7.78;100.00;100981.44;5098909;27;97291;-31
2022/11/28 01:46:53;;;;;;;1.42;1.17;;;;;;;7.80;100.00;100984.06;5098922;27;97951;-31
2022/11/28 01:49:30;;;;;;;1.75;1.02;;;;;;;7.80;100.00;100979.53;5099160;27;96622;-31
2022/11/28 01:52:06;;;;;;;1.88;1.08;;;;;;;7.81;100.00;100975.00;5080750;27;96679;-31
2022/11/28 01:54:35;;;;;;;2.15;1.38;;;;;;;7.82;100.00;100966.00;5079948;27;100807;-31
2022/11/28 01:57:05;;;;;;;2.55;1.35;;;;;;;7.84;100.00;100962.28;5098910;27;97412;-32
2022/11/28 01:59:37;;;;;;;1.52;1.15;;;;;;;7.85;100.00;100953.22;5079659;27;96618;-31
2022/11/28 02:02:05;;;;;;;;;;;;;;;7.88;100.00;100960.28;5080715;27;96735;-31
2022/11/28 02:04:31;;;;;;;1.13;1.00;;;;;;;7.86;100.00;100957.69;5098512;27;99696;-31
2022/11/28 02:06:57;;;;;;;1.90;1.27;;;;;;;7.87;100.00;100958.56;5079329;27;101242;-32
2022/11/28 02:09:22;;;;;;;2.08;1.58;;;;;;;7.88;100.00;100957.59;5098765;27;96456;-31
2022/11/28 02:12:35;;;;;;;1.52;1.17;;;;;;;7.88;100.00;100958.47;5098786;27;96768;-32
2022/11/28 02:15:01;;;;;;;1.83;1.40;;;;;;;7.88;100.00;100961.16;5019680;27;98923;-31
2022/11/28 02:17:59;;;;;;;2.17;1.60;;;;;;;7.90;100.00;100966.47;5098583;27;97877;-32
2022/11/28 02:20:52;;;;;;;2.20;1.38;;;;;;;7.89;100.00;100967.44;5098257;27;96781;-31
2022/11/28 02:23:40;;;;;;;1.75;1.25;;;;;;;7.88;100.00;100963.84;5079963;27;96548;-31
2022/11/28 02:26:41;;;;;;;2.45;1.63;;;;;;;7.86;100.00;100960.38;5078761;27;101337;-31
2022/11/28 02:29:25;;;;;;;3.95;1.58;;;;;;;7.88;100.00;100961.16;5064500;27;97795;-31
2022/11/28 02:32:13;;;;;;;1.88;1.48;;;;;;;7.90;100.00;100968.31;5098714;27;96462;-32
2022/11/28 02:34:41;;;;;;;3.05;1.90;;;;;;;7.88;100.00;100965.69;5062795;27;96785;-31
2022/11/28 02:37:14;;;;;;;2.72;1.95;;;;;;;7.87;100.00;100969.34;5079120;27;100891;-31
2022/11/28 02:39:50;;;;;;;4.63;1.83;;;;;;;7.88;100.00;100965.69;5097129;27;99603;-31
2022/11/28 02:42:31;;;;;;;2.17;1.48;;;;;;;7.84;100.00;100959.56;5098584;27;96451;-32
2022/11/28 02:45:10;;;;;;;4.72;2.08;;;;;;;7.87;100.00;100966.63;5080104;27;96691;-31
2022/11/28 02:47:47;;;;;;;3.85;1.63;;;;;;;7.85;100.00;100963.13;5098087;27;97868;-31
2022/11/28 02:50:27;;;;;;;2.25;1.65;;;;;;;7.82;100.00;100957.91;5079216;27;101046;-31
2022/11/28 02:52:58;;;;;;;2.40;1.63;;;;;;;7.83;100.00;100963.19;5078695;27;96743;-31
2022/11/28 02:55:25;;;;;;;1.58;1.33;;;;;;;7.83;100.00;100957.81;5079321;27;96784;-31
2022/11/28 02:57:53;;;;;;;3.78;2.20;;;;;;;7.84;100.00;100955.97;5079176;27;101483;-31
2022/11/28 03:00:35;;;;;;;3.35;2.13;;;;;;;7.84;100.00;100959.56;5078893;27;100866;-31
2022/11/28 03:03:15;;;;;;;;;;;;;;;7.85;100.00;100963.13;5079752;27;96583;-31
2022/11/28 03:05:49;;;;;;;2.65;1.88;;;;;;;7.85;100.00;100960.44;5098229;27;96580;-31
2022/11/28 03:08:53;;;;;;;1.58;1.33;;;;;;;7.84;100.00;100959.56;5097645;27;97506;-31
2022/11/28 03:11:28;;;;;;;5.78;2.25;;;;;;;7.84;100.00;100958.69;5081706;27;97703;-31
2022/11/28 03:13:56;;;;;;;3.00;1.95;;;;;;;7.85;100.00;100966.72;5079010;27;96767;-32
2022/11/28 03:16:35;;;;;;;2.85;1.40;;;;;;;7.83;100.00;100954.25;5097362;27;96863;-31
2022/11/28 03:19:21;;;;;;;2.17;1.55;;;;;;;7.86;100.00;100954.09;5078142;27;100773;-31
2022/11/28 03:22:03;;;;;;;4.97;2.15;;;;;;;7.87;100.00;100961.25;5078540;27;101211;-31
2022/11/28 03:24:59;;;;;;;3.05;1.95;;;;;;;7.87;100.00;100950.47;5078897;27;96672;-31
2022/11/28 03:27:31;;;;;;;4.65;1.98;;;;;;;7.85;100.00;100957.75;5053926;27;97916;-31
2022/11/28 03:30:07;;;;;;;2.90;1.90;;;;;;;7.84;100.00;100958.69;5078539;27;101415;-31
2022/11/28 03:32:37;;;;;;;5.18;2.63;;;;;;;7.81;100.00;100956.13;5078294;27;99796;-32
2022/11/28 03:35:07;;;;;;;3.63;2.17;;;;;;;7.81;100.00;100965.09;5078820;27;96630;-31
2022/11/28 03:37:39;;;;;;;3.22;2.20;;;;;;;7.80;100.00;100965.19;5079108;27;96679;-31
2022/11/28 03:40:09;;;;;;;3.63;2.50;;;;;;;7.81;100.00;100966.91;5078326;27;101042;-31
2022/11/28 03:42:39;;;;;;;6.35;2.28;;;;;;;7.78;100.00;100959.84;5078340;27;101309;-31
2022/11/28 03:45:12;;;;;;;4.78;2.75;;;;;;;7.80;100.00;100965.19;5078096;27;96670;-31
2022/11/28 03:47:43;;;;;;;4.28;2.38;;;;;;;7.79;100.00;100961.59;5097232;27;96454;-31
2022/11/28 03:50:28;;;;;;;4.68;2.78;;;;;;;7.77;100.00;100957.22;5077891;27;100851;-31
2022/11/28 03:53:06;;;;;;;5.40;2.15;;;;;;;7.80;100.00;100951.72;5078071;27;100889;-31
2022/11/28 03:55:42;;;;;;;5.82;2.78;;;;;;;7.80;100.00;100949.00;5078407;27;96749;-31
2022/11/28 03:58:23;;;;;;;2.88;2.08;;;;;;;7.77;100.00;100952.72;5097305;27;96552;-31
2022/11/28 04:01:31;;;;;;;2.42;1.75;;;;;;;7.80;100.00;100952.56;5078152;27;100844;-31
2022/11/28 04:04:15;;;;;;;4.20;2.72;;;;;;;7.79;100.00;100966.13;5078401;27;101210;-31
2022/11/28 04:07:36;;;;;;;5.63;2.53;;;;;;;7.75;100.00;100957.31;5096988;27;96481;-31
2022/11/28 04:10:34;;;;;;;3.42;2.35;;;;;;;7.77;100.00;100960.81;4975666;28;96994;-32
2022/11/28 04:13:09;;;;;;;4.30;3.05;;;;;;;7.75;100.00;100951.94;5006894;27;98967;-31
2022/11/28 04:15:44;;;;;;;4.82;2.58;;;;;;;7.79;100.00;100963.44;5077683;27;100970;-31
2022/11/28 04:18:16;;;;;;;6.30;3.00;;;;;;;7.78;100.00;100961.69;5077955;27;96767;-32
2022/11/28 04:20:48;;;;;;;5.75;3.60;;;;;;;7.74;100.00;100960.06;5096382;27;96817;-31
2022/11/28 04:23:16;;;;;;;5.75;2.85;;;;;;;7.74;100.00;100962.78;5077655;27;101540;-31
2022/11/28 04:25:50;;;;;;;4.50;2.78;;;;;;;7.73;100.00;100956.50;5077420;27;100861;-31
2022/11/28 04:28:21;;;;;;;3.58;2.38;;;;;;;7.75;100.00;100953.75;5096429;27;96548;-31
2022/11/28 04:30:49;;;;;;;5.03;3.28;;;;;;;7.73;100.00;100955.66;5078190;27;96836;-32
2022/11/28 04:33:20;;;;;;;4.35;2.78;;;;;;;7.75;100.00;100960.00;5077618;27;100760;-31
2022/11/28 04:35:50;;;;;;;4.60;3.13;;;;;;;7.76;100.00;100966.28;5096329;27;97268;-31
2022/11/28 04:38:16;;;;;;;8.32;3.45;;;;;;;7.75;100.00;100967.25;5095863;27;96552;-32
2022/11/28 04:41:09;;;;;;;6.35;2.53;;;;;;;7.76;100.00;100969.84;5096388;27;96888;-31
2022/11/28 04:43:50;;;;;;;6.45;3.40;;;;;;;7.75;100.00;100975.31;5085091;27;98152;-32
2022/11/28 04:46:25;;;;;;;4.60;2.75;;;;;;;7.73;100.00;100971.81;5077250;27;101615;-31
2022/11/28 04:48:51;;;;;;;5.03;3.20;;;;;;;7.76;100.00;100985.16;5077556;27;96658;-31
2022/11/28 04:51:23;;;;;;;5.53;3.05;;;;;;;7.78;100.00;100981.44;5096208;27;96896;-31
2022/11/28 04:53:51;;;;;;;6.05;3.33;;;;;;;7.76;100.00;100975.22;5077225;27;101102;-31
2022/11/28 04:56:26;;;;;;;5.45;3.25;;;;;;;7.78;100.00;100972.47;5095896;27;106080;-32
2022/11/28 04:58:51;;;;;;;8.63;3.50;;;;;;;7.77;100.00;100976.09;5077481;27;96563;-31
2022/11/28 05:01:24;;;;;;;6.82;3.17;;;;;;;7.80;100.00;100981.38;5097101;27;96900;-32
2022/11/28 05:03:49;;;;;;;9.27;3.65;;;;;;;7.78;100.00;100975.16;5098888;27;98187;-31
2022/11/28 05:06:26;;;;;;;7.32;2.78;;;;;;;7.78;100.00;100970.66;5098976;27;98856;-31
2022/11/28 05:08:51;;;;;;;6.00;3.33;;;;;;;7.76;100.00;100985.16;5081305;27;96554;-31
2022/11/28 05:11:17;;;;;;;5.25;3.20;;;;;;;7.76;100.00;100985.16;5099559;27;96821;-31
2022/11/28 05:13:42;;;;;;;6.55;4.03;;;;;;;7.77;100.00;100978.78;5099532;27;98611;-31
2022/11/28 05:16:09;;;;;;;6.60;3.65;;;;;;;7.78;100.00;100999.44;5099353;27;102797;-31
2022/11/28 05:18:35;;;;;;;4.40;2.80;;;;;;;7.76;100.00;100999.50;5080936;27;96521;-32
2022/11/28 05:21:00;;;;;;;4.30;2.78;;;;;;;7.81;100.00;101007.38;5099106;27;96703;-32
2022/11/28 05:23:26;;;;;;;6.47;3.97;;;;;;;7.80;100.00;101001.13;5099207;27;99597;-31
2022/11/28 05:25:51;;;;;;;6.90;3.40;;;;;;;7.80;100.00;101001.13;5099199;27;97827;-31
2022/11/28 05:28:16;;;;;;;3.42;2.13;;;;;;;7.80;100.00;101009.19;5098927;27;96497;-31
2022/11/28 05:30:41;;;;;;;11.07;4.38;;;;;;;7.78;100.00;101003.00;5099568;27;96813;-31
2022/11/28 05:33:07;;;;;;;8.48;4.25;;;;;;;7.78;100.00;101008.41;5099090;27;97425;-32
2022/11/28 05:35:32;;;;;;;8.77;3.90;;;;;;;7.78;100.00;101003.00;5098831;27;103135;-31
2022/11/28 05:37:57;;;;;;;7.60;2.60;;;;;;;7.82;100.00;101009.13;5099108;27;96506;-31
2022/11/28 05:40:23;;;;;;;8.30;3.53;;;;;;;7.84;100.00;101013.50;5099230;27;96839;-31
2022/11/28 05:42:48;;;;;;;9.43;4.03;;;;;;;7.83;100.00;101017.13;5098783;27;99646;-31
2022/11/28 05:45:13;;;;;;;10.75;4.50;;;;;;;7.83;100.00;101022.53;5099046;27;101373;-31
2022/11/28 05:47:39;;;;;;;10.98;4.53;;;;;;;7.84;100.00;101018.00;5098964;27;96482;-32
2022/11/28 05:50:05;;;;;;;11.98;4.35;;;;;;;7.81;100.00;101018.16;5098701;27;98588;-32
2022/11/28 05:52:31;;;;;;;9.30;3.90;;;;;;;7.84;100.00;101005.41;5079454;27;101363;-31
2022/11/28 05:54:57;;;;;;;11.27;3.97;;;;;;;7.84;100.00;101008.13;5098448;27;99364;-32
2022/11/28 05:57:22;;;;;;;12.55;4.38;;;;;;;7.83;100.00;101000.97;5099037;27;96573;-31
2022/11/28 05:59:48;;;;;;;9.45;4.28;;;;;;;7.85;100.00;101003.59;5099028;27;96903;-31
2022/11/28 06:02:13;;;;;;;12.40;5.80;;;;;;;7.83;100.00;101010.88;5098655;27;97383;-32
2022/11/28 06:04:40;;;;;;;7.70;3.33;;;;;;;7.87;100.00;101012.50;5098252;27;99325;-32
2022/11/28 06:07:06;;;;;;;9.35;3.47;;;;;;;7.88;100.00;101008.84;5098801;27;96598;-31
2022/11/28 06:09:31;;;;;;;10.65;4.88;;;;;;;7.88;100.00;101008.84;5099356;27;96760;-32
2022/11/28 06:11:57;;;;;;;8.82;3.78;;;;;;;7.91;100.00;101007.81;5098216;27;99207;-31
2022/11/28 06:14:22;;;;;;;14.05;5.38;;;;;;;7.89;100.00;101010.59;5098281;27;98018;-31
2022/11/28 06:16:47;;;;;;;9.25;5.10;;;;;;;7.89;100.00;101016.00;5098188;27;96496;-32
2022/11/28 06:19:13;;;;;;;12.55;5.63;;;;;;;7.86;100.00;101008.94;5098154;27;96916;-31
2022/11/28 06:21:38;;;;;;;11.45;5.28;;;;;;;7.91;100.00;101015.91;5097747;27;99405;-32
2022/11/28 06:24:04;;;;;;;10.55;4.85;;;;;;;7.90;100.00;101011.47;5098023;27;99208;-31
2022/11/28 06:26:29;;;;;;;17.95;5.78;;;;;;;7.92;100.00;101012.28;5098327;27;96624;-31
2022/11/28 06:28:55;;;;;;;10.27;4.45;;;;;;;7.90;100.00;101009.63;5098355;27;96802;-31
2022/11/28 06:31:23;;;;;;;12.70;5.40;;;;;;;7.90;100.00;101023.13;5079322;27;99295;-31
2022/11/28 06:33:48;;;;;;;7.32;4.05;;;;;;;7.91;100.00;101027.56;5062913;27;99354;-31
2022/11/28 06:36:15;;;;;;;10.43;5.13;;;;;;;7.91;100.00;101015.91;5079681;27;96593;-31
2022/11/28 06:38:41;;;;;;;10.40;4.68;;;;;;;7.94;100.00;101024.72;5079600;27;96829;-31
2022/11/28 06:41:08;;;;;;;11.45;4.80;;;;;;;7.91;100.00;101019.47;5097526;27;98470;-31
2022/11/28 06:43:34;;;;;;;9.48;4.80;;;;;;;7.93;100.00;101022.09;5079362;27;100972;-31
2022/11/28 06:46:00;;;;;;;8.40;4.32;;;;;;;7.95;100.00;101025.59;5079535;27;96568;-32
2022/11/28 06:48:25;;;;;;;14.38;5.90;;;;;;;7.92;100.00;101029.31;5097712;27;96786;-31
2022/11/28 06:50:51;;;;;;;14.07;4.88;;;;;;;7.94;100.00;101030.13;5078950;27;101377;-31
2022/11/28 06:53:17;;;;;;;12.48;5.13;;;;;;;7.95;100.00;101036.38;5078233;27;101258;-32
2022/11/28 06:55:43;;;;;;;10.80;4.93;;;;;;;7.93;100.00;101028.34;5097797;27;96666;-31
2022/11/28 06:58:09;;;;;;;14.50;5.20;;;;;;;7.93;100.00;101032.88;5079962;27;96759;-31
2022/11/28 07:00:35;;;;;;;10.77;4.90;;;;;;;7.95;100.00;101041.78;5097274;27;99495;-32
2022/11/28 07:03:00;;;;;;;13.07;4.65;;;;;;;7.94;100.00;101042.75;5078829;27;101000;-31
2022/11/28 07:05:29;;;;;;;16.13;5.25;;;;;;;7.95;100.00;101048.03;5097655;27;96459;-32
2022/11/28 07:07:56;;;;;;;16.30;6.00;;;;;;;7.95;100.00;101041.78;5078191;27;97021;-32
2022/11/28 07:10:22;;;;;;;15.38;5.85;;;;;;;7.97;100.00;101047.97;5076703;27;101035;-32
2022/11/28 07:12:59;;;;;;;15.48;5.40;;;;;;;7.97;100.00;101054.25;5076286;27;100781;-32
2022/11/28 07:15:25;;;;;;;12.98;6.28;;;;;;;7.98;100.00;101055.97;5095601;27;96938;-33
2022/11/28 07:17:51;;;;;;;11.35;6.43;;;;;;;7.99;100.00;101052.34;5077047;27;97043;-32
2022/11/28 07:20:17;;;;;;;11.00;5.35;;;;;;;8.01;100.00;101044.19;5095209;27;98006;-32
2022/11/28 07:22:42;;;;;;;9.65;4.15;;;;;;;8.01;100.00;101046.91;5095822;27;99276;-31
2022/11/28 07:25:09;;;;;;;15.05;5.65;;;;;;;8.00;100.00;101053.22;5097059;27;96492;-31
2022/11/28 07:27:34;;;;;;;13.88;5.40;;;;;;;8.02;100.00;101049.50;5078877;27;96875;-31
2022/11/28 07:30:00;;;;;;;11.27;5.15;;;;;;;8.01;100.00;101055.00;5096276;27;99289;-32
2022/11/28 07:32:25;;;;;;;15.25;5.85;;;;;;;8.01;100.00;101055.00;5097342;27;97859;-31
2022/11/28 07:34:50;;;;;;;22.77;6.97;;;;;;;8.01;100.00;101046.91;5097293;27;96721;-31
2022/11/28 07:37:16;;;;;;;10.65;5.03;;;;;;;8.03;100.00;101059.38;5096824;27;105698;-31
2022/11/28 07:39:43;;;;;;;12.02;5.07;;;;;;;8.02;100.00;101060.28;5096603;27;103303;-31
2022/11/28 07:42:09;;;;;;;11.73;5.45;;;;;;;8.03;100.00;101061.16;5097083;27;97835;-31
2022/11/28 07:44:34;;;;;;;11.40;5.05;;;;;;;8.05;100.00;101070.94;5078678;27;96706;-31
2022/11/28 07:46:59;;;;;;;12.38;4.85;;;;;;;8.04;100.00;101073.72;5097157;27;104060;-32
2022/11/28 07:49:25;;;;;;;18.52;5.82;;;;;;;8.06;100.00;101078.09;5096581;27;99935;-31
2022/11/28 07:51:50;;;;;;;11.45;5.90;;;;;;;8.05;100.00;101076.31;5096694;27;99170;-31
2022/11/28 07:54:15;;;;;;;18.15;5.78;;;;;;;8.09;100.00;101086.03;5096417;27;96647;-31
2022/11/28 07:56:41;;;;;;;10.63;4.93;;;;;;;8.11;100.00;101090.50;5096982;27;96871;-31
2022/11/28 07:59:06;;;;;;;14.88;5.13;;;;;;;8.13;100.00;101089.47;5095893;27;114086;-31
2022/11/28 08:01:36;;;;;;;20.60;6.38;;;;;;;8.13;100.00;101083.19;5078109;27;100777;-31
2022/11/28 08:04:05;;;;;;;16.27;6.30;;;;;;;8.10;100.00;101078.81;5078353;27;96757;-31
2022/11/28 08:06:35;;;;;;;17.63;4.85;;;;;;;8.16;100.00;101089.31;5096974;27;96778;-31
2022/11/28 08:09:00;;;;;;;19.13;6.15;;;;;;;8.16;100.00;101092.00;5077969;27;102487;-31
2022/11/28 08:11:28;;;;;;;16.77;5.05;;;;;;;8.17;100.00;101093.75;5096666;27;99066;-32
2022/11/28 08:13:54;;;;;;;20.48;6.32;;;;;;;8.16;100.00;101099.25;5096743;27;96686;-32
2022/11/28 08:16:22;;;;;;;18.70;6.43;;;;;;;8.15;100.00;101089.38;5096844;27;96875;-31
2022/11/28 08:18:49;;;;;;;15.00;5.85;;;;;;;8.17;100.00;101091.06;5077049;27;101012;-31
2022/11/28 08:21:17;;;;;;;14.93;6.68;;;;;;;8.18;100.00;101100.91;5077356;27;100761;-31
2022/11/28 08:23:46;;;;;;;15.30;5.78;;;;;;;8.20;100.00;101106.22;5078013;27;96638;-31
2022/11/28 08:26:15;;;;;;;14.63;6.47;;;;;;;8.21;100.00;101097.19;5077752;27;96830;-32
2022/11/28 08:28:41;;;;;;;15.52;6.07;;;;;;;8.22;100.00;101104.31;5077606;27;100738;-32
2022/11/28 08:31:12;;;;;;;17.95;7.10;;;;;;;8.22;100.00;101094.44;5077691;27;101294;-31
2022/11/28 08:33:38;;;;;;;14.93;6.05;;;;;;;8.24;100.00;101088.94;5096442;27;96551;-31
2022/11/28 08:36:09;;;;;;;18.95;6.50;;;;;;;8.26;100.00;101085.22;5077098;27;96837;-31
2022/11/28 08:38:36;;;;;;;11.23;5.40;;;;;;;8.26;100.00;101082.53;5077128;27;102065;-31
2022/11/28 08:41:07;;;;;;;12.10;5.25;;;;;;;8.29;100.00;101084.19;5077385;27;101203;-32
2022/11/28 08:43:33;;;;;;;10.75;5.07;;;;;;;8.34;100.00;101095.63;5077232;27;96641;-31
2022/11/28 08:46:00;;;;;;;11.75;6.18;;;;;;;8.35;100.00;101088.44;5077733;27;96586;-31
2022/11/28 08:48:25;;;;;;;16.85;5.93;;;;;;;8.35;100.00;101100.09;5077366;27;100837;-31
2022/11/28 08:50:51;;;;;;;16.20;6.68;;;;;;;8.37;100.00;101098.22;5096119;27;97983;-31
2022/11/28 08:53:16;;;;;;;14.00;5.22;;;;;;;8.37;100.00;101092.81;5096182;27;96664;-31
2022/11/28 08:55:43;;;;;;;11.20;5.35;;;;;;;8.42;100.00;101106.13;5096295;27;96757;-31
2022/11/28 08:58:09;;;;;;;17.08;6.32;;;;;;;8.44;100.00;101099.69;5077249;27;101386;-31
2022/11/28 09:00:34;;;;;;;12.65;5.18;;;;;;;8.46;100.00;101097.81;5077588;27;100805;-31
2022/11/28 09:03:00;;;;;;;12.90;5.40;;;;;;;8.49;100.00;101096.78;5095844;27;96684;-31
2022/11/28 09:05:27;;;;;;;13.80;5.75;;;;;;;8.48;100.00;101097.72;5096204;27;96516;-31
2022/11/28 09:07:53;;;;;;;16.02;5.20;;;;;;;8.52;100.00;101095.75;5076226;27;100623;-31
2022/11/28 09:10:19;;;;;;;9.32;4.65;;;;;;;8.52;100.00;101096.63;5077047;27;101305;-32
2022/11/28 09:12:44;;;;;;;11.77;6.00;;;;;;;8.55;100.00;101098.28;5095877;27;96575;-32
2022/11/28 09:15:10;;;;;;;12.45;5.15;;;;;;;8.56;100.00;101097.34;5095709;27;96857;-31
2022/11/28 09:17:35;;;;;;;14.85;5.35;;;;;;;8.60;100.00;101101.63;5095306;27;99239;-31
2022/11/28 09:20:00;;;;;;;15.68;5.65;;;;;;;8.63;100.00;101104.19;5094670;27;108753;-32
2022/11/28 09:22:28;;;;;;;10.98;5.10;;;;;;;8.65;100.00;101105.88;5095892;27;96610;-32
2022/11/28 09:24:53;;;;;;;11.48;4.90;;;;;;;8.64;100.00;101109.50;5077431;27;96955;-31
2022/11/28 09:27:18;;;;;;;13.90;5.03;;;;;;;8.69;100.00;101106.59;5094603;27;120805;-31
2022/11/28 09:29:43;;;;;;;13.32;5.38;;;;;;;8.68;100.00;101096.75;5095584;27;97775;-31
2022/11/28 09:32:09;;;;;;;12.27;5.47;;;;;;;8.74;100.00;101112.63;5095046;27;96640;-31
2022/11/28 09:34:34;;;;;;;12.10;4.95;;;;;;;8.75;100.00;101110.78;5095944;27;96809;-31
2022/11/28 09:36:59;;;;;;;16.70;5.70;;;;;;;8.78;100.00;101116.94;5094143;27;97919;-31
2022/11/28 09:39:25;;;;;;;10.55;4.95;;;;;;;8.79;100.00;101110.56;5094824;27;108961;-32
2022/11/28 09:42:14;;;;;;;10.85;5.15;;;;;;;8.82;100.00;101118.53;5095256;27;96726;-31
2022/11/28 09:44:44;;;;;;;9.27;4.05;;;;;;;8.85;100.00;101123.78;5077211;27;96772;-31
2022/11/28 09:47:22;;;;;;;12.77;5.90;;;;;;;8.85;100.00;101121.06;5076399;27;100778;-31
2022/11/28 09:50:14;;;;;;;13.57;4.93;;;;;;;8.90;100.00;101129.81;5099036;27;97911;-31
2022/11/28 09:52:54;;;;;;;14.93;5.40;;;;;;;8.87;100.00;101126.41;5099013;27;96630;-31
2022/11/28 09:55:48;;;;;;;11.25;4.53;;;;;;;8.90;100.00;101129.81;5079969;27;96705;-32
2022/11/28 09:58:43;;;;;;;10.88;4.72;;;;;;;8.90;100.00;101124.41;5098330;27;97594;-31
2022/11/28 10:01:40;;;;;;;9.80;4.60;;;;;;;8.92;100.00;101127.91;5080184;27;100927;-32
2022/11/28 10:04:21;;;;;;;12.38;4.85;;;;;;;8.91;100.00;101120.78;5097634;27;96816;-31
2022/11/28 10:07:14;;;;;;;12.48;5.07;;;;;;;8.90;100.00;101121.72;5080296;27;96749;-31
2022/11/28 10:09:53;;;;;;;15.25;6.38;;;;;;;8.96;100.00;101127.75;5098653;27;97944;-31
2022/11/28 10:12:28;;;;;;;14.63;5.13;;;;;;;8.98;100.00;101131.25;5079712;27;100890;-32
2022/11/28 10:14:55;;;;;;;15.90;6.55;;;;;;;8.98;100.00;101125.84;5098593;27;96729;-31
2022/11/28 10:17:36;;;;;;;11.88;5.43;;;;;;;9.01;100.00;101131.09;5098729;27;96748;-31
2022/11/28 10:20:03;;;;;;;16.08;5.25;;;;;;;9.02;100.00;101125.63;5097725;27;98124;-32
2022/11/28 10:22:49;;;;;;;11.93;5.20;;;;;;;9.04;100.00;101126.44;5079551;27;101060;-31
2022/11/28 10:25:39;;;;;;;13.98;5.13;;;;;;;9.04;100.00;101120.16;5098237;27;96555;-31
2022/11/28 10:28:10;;;;;;;10.45;4.70;;;;;;;9.11;100.00;101135.97;5097637;27;96877;-31
2022/11/28 10:30:39;;;;;;;14.48;5.45;;;;;;;9.12;100.00;101136.84;5079602;27;100938;-31
2022/11/28 10:33:17;;;;;;;16.23;6.20;;;;;;;9.17;100.00;101136.59;5079432;27;100967;-32
2022/11/28 10:35:50;;;;;;;16.05;6.55;;;;;;;9.20;100.00;101152.66;5098722;27;96618;-32
2022/11/28 10:38:16;;;;;;;17.98;7.63;;;;;;;9.20;100.00;101140.03;5098532;27;96692;-31
2022/11/28 10:41:15;;;;;;;25.08;8.10;;;;;;;9.25;100.00;101148.78;5098166;27;98042;-31
2022/11/28 10:44:05;;;;;;;17.85;6.18;;;;;;;9.28;100.00;101145.06;5079425;27;100923;-31
2022/11/28 10:46:37;;;;;;;14.75;6.40;;;;;;;9.27;100.00;101151.38;5079558;27;96550;-32
2022/11/28 10:49:23;;;;;;;19.02;7.35;;;;;;;9.27;100.00;101155.00;5098358;27;96812;-31
2022/11/28 10:51:56;;;;;;;16.15;6.43;;;;;;;9.25;100.00;101148.78;5078659;27;101390;-32
2022/11/28 10:54:46;;;;;;;16.10;7.40;;;;;;;9.25;100.00;101153.31;5079077;27;100941;-31
2022/11/28 10:57:20;;;;;;;17.45;6.38;;;;;;;9.23;100.00;101155.22;5079637;27;96654;-31
2022/11/28 11:00:04;;;;;;;17.42;7.20;;;;;;;9.27;100.00;101159.50;5078492;27;96716;-31
2022/11/28 11:02:40;;;;;;;16.63;6.72;;;;;;;9.24;100.00;101147.03;5078744;27;100712;-31
2022/11/28 11:05:10;;;;;;;20.60;6.93;;;;;;;9.26;100.00;101147.81;5079082;27;98798;-31
2022/11/28 11:07:36;;;;;;;18.20;6.90;;;;;;;9.30;100.00;101156.66;5079155;27;96643;-31
2022/11/28 11:10:13;;;;;;;13.23;5.78;;;;;;;9.30;100.00;101148.56;5079690;27;96942;-31
2022/11/28 11:12:39;;;;;;;18.73;7.07;;;;;;;9.31;100.00;101151.16;5078812;27;100856;-32
2022/11/28 11:15:15;;;;;;;20.77;7.30;;;;;;;9.32;100.00;101152.94;5078627;27;100905;-31
2022/11/28 11:17:40;;;;;;;16.65;7.18;;;;;;;9.34;100.00;101152.81;5078505;27;96628;-32
2022/11/28 11:20:33;;;;;;;19.13;7.53;;;;;;;9.34;100.00;101144.72;5097233;27;96829;-31
2022/11/28 11:23:21;;;;;;;20.27;6.72;;;;;;;9.36;100.00;101146.38;5078679;27;101398;-31
2022/11/28 11:25:57;;;;;;;12.05;5.47;;;;;;;9.40;100.00;101151.66;5097421;27;98072;-31
2022/11/28 11:28:37;;;;;;;13.20;6.43;;;;;;;9.40;100.00;101139.00;5097717;27;96500;-31
2022/11/28 11:31:13;;;;;;;15.15;6.80;;;;;;;9.42;100.00;101131.69;5078969;27;96752;-31
2022/11/28 11:33:39;;;;;;;15.88;6.80;;;;;;;9.49;100.00;101140.38;5078386;27;101514;-31
2022/11/28 11:36:25;;;;;;;15.38;6.90;;;;;;;9.47;100.00;101135.03;5097825;27;97248;-32
2022/11/28 11:39:03;;;;;;;17.65;5.85;;;;;;;9.53;100.00;101128.41;5097603;27;96550;-31